sensor_id;sensor_type;location;lat;lon;timestamp;pressure;altitude;pressure_sealevel;temperature
24639;BMP180;1641;51.306;12.384;2022-09-12T00:01:14;100364.00;;;17.70
24639;BMP180;1641;51.306;12.384;2022-09-12T00:03:40;100350.00;;;17.70
24639;BMP180;1641;51.306;12.384;2022-09-12T00:06:11;100359.00;;;17.80
24639;BMP180;1641;51.306;12.384;2022-09-12T00:08:37;100362.00;;;18.00
24639;BMP180;1641;51.306;12.384;2022-09-12T00:11:04;100368.00;;;17.40
24639;BMP180;1641;51.306;12.384;2022-09-12T00:13:30;100374.00;;;17.20
24639;BMP180;1641;51.306;12.384;2022-09-12T00:15:55;100368.00;;;17.10
24639;BMP180;1641;51.306;12.384;2022-09-12T00:18:20;100367.00;;;17.20
24639;BMP180;1641;51.306;12.384;2022-09-12T00:20:46;100372.00;;;17.20
24639;BMP180;1641;51.306;12.384;2022-09-12T00:23:12;100310.00;;;17.00
24639;BMP180;1641;51.306;12.384;2022-09-12T00:25:45;100370.00;;;16.60
24639;BMP180;1641;51.306;12.384;2022-09-12T00:28:12;100335.00;;;16.30
24639;BMP180;1641;51.306;12.384;2022-09-12T00:30:42;100374.00;;;16.40
24639;BMP180;1641;51.306;12.384;2022-09-12T00:33:08;100354.00;;;16.30
24639;BMP180;1641;51.306;12.384;2022-09-12T00:35:33;100336.00;;;16.30
24639;BMP180;1641;51.306;12.384;2022-09-12T00:37:58;100375.00;;;16.60
24639;BMP180;1641;51.306;12.384;2022-09-12T00:40:24;100367.00;;;16.50
24639;BMP180;1641;51.306;12.384;2022-09-12T00:42:49;100370.00;;;16.60
24639;BMP180;1641;51.306;12.384;2022-09-12T00:45:28;100362.00;;;16.70
24639;BMP180;1641;51.306;12.384;2022-09-12T00:47:54;100366.00;;;16.70
24639;BMP180;1641;51.306;12.384;2022-09-12T00:50:21;100364.00;;;16.40
24639;BMP180;1641;51.306;12.384;2022-09-12T00:53:06;100350.00;;;16.80
24639;BMP180;1641;51.306;12.384;2022-09-12T00:55:42;100361.00;;;17.40
24639;BMP180;1641;51.306;12.384;2022-09-12T00:58:16;100289.00;;;17.60
24639;BMP180;1641;51.306;12.384;2022-09-12T01:00:43;100356.00;;;17.50
24639;BMP180;1641;51.306;12.384;2022-09-12T01:03:13;100352.00;;;17.30
24639;BMP180;1641;51.306;12.384;2022-09-12T01:05:42;100348.00;;;17.60
24639;BMP180;1641;51.306;12.384;2022-09-12T01:08:09;100348.00;;;17.50
24639;BMP180;1641;51.306;12.384;2022-09-12T01:10:36;100341.00;;;17.40
24639;BMP180;1641;51.306;12.384;2022-09-12T01:13:04;100344.00;;;17.30
24639;BMP180;1641;51.306;12.384;2022-09-12T01:15:30;100335.00;;;17.70
24639;BMP180;1641;51.306;12.384;2022-09-12T01:18:07;100323.00;;;17.40
24639;BMP180;1641;51.306;12.384;2022-09-12T01:23:31;100306.00;;;16.40
24639;BMP180;1641;51.306;12.384;2022-09-12T01:26:30;100345.00;;;16.40
24639;BMP180;1641;51.306;12.384;2022-09-12T01:32:07;100341.00;;;16.90
24639;BMP180;1641;51.306;12.384;2022-09-12T01:34:59;100344.00;;;17.40
24639;BMP180;1641;51.306;12.384;2022-09-12T01:40:41;100307.00;;;17.30
24639;BMP180;1641;51.306;12.384;2022-09-12T01:46:15;100333.00;;;16.80
24639;BMP180;1641;51.306;12.384;2022-09-12T01:49:06;100343.00;;;16.70
24639;BMP180;1641;51.306;12.384;2022-09-12T01:54:44;100313.00;;;17.20
24639;BMP180;1641;51.306;12.384;2022-09-12T01:57:30;100292.00;;;17.30
24639;BMP180;1641;51.306;12.384;2022-09-12T02:00:09;100345.00;;;17.00
24639;BMP180;1641;51.306;12.384;2022-09-12T02:05:26;100307.00;;;16.50
24639;BMP180;1641;51.306;12.384;2022-09-12T02:08:05;100335.00;;;17.00
24639;BMP180;1641;51.306;12.384;2022-09-12T02:10:44;100336.00;;;16.80
24639;BMP180;1641;51.306;12.384;2022-09-12T02:19:21;100337.00;;;16.30
24639;BMP180;1641;51.306;12.384;2022-09-12T02:21:53;100337.00;;;16.40
24639;BMP180;1641;51.306;12.384;2022-09-12T02:24:21;100343.00;;;16.70
24639;BMP180;1641;51.306;12.384;2022-09-12T02:27:02;100331.00;;;16.70
24639;BMP180;1641;51.306;12.384;2022-09-12T02:29:28;100304.00;;;16.30
24639;BMP180;1641;51.306;12.384;2022-09-12T02:31:58;100345.00;;;16.30
24639;BMP180;1641;51.306;12.384;2022-09-12T02:34:33;100335.00;;;16.30
24639;BMP180;1641;51.306;12.384;2022-09-12T02:37:21;100340.00;;;16.40
24639;BMP180;1641;51.306;12.384;2022-09-12T02:39:50;100333.00;;;16.60
24639;BMP180;1641;51.306;12.384;2022-09-12T02:42:18;100336.00;;;16.60
24639;BMP180;1641;51.306;12.384;2022-09-12T02:44:43;100335.00;;;17.00
24639;BMP180;1641;51.306;12.384;2022-09-12T02:47:13;100303.00;;;16.90
24639;BMP180;1641;51.306;12.384;2022-09-12T02:49:39;100334.00;;;16.70
24639;BMP180;1641;51.306;12.384;2022-09-12T02:52:04;100315.00;;;16.50
24639;BMP180;1641;51.306;12.384;2022-09-12T02:54:29;100291.00;;;16.90
24639;BMP180;1641;51.306;12.384;2022-09-12T02:56:55;100300.00;;;16.70
24639;BMP180;1641;51.306;12.384;2022-09-12T02:59:21;100317.00;;;16.40
24639;BMP180;1641;51.306;12.384;2022-09-12T03:08:05;100320.00;;;16.30
24639;BMP180;1641;51.306;12.384;2022-09-12T03:11:12;100314.00;;;16.90
24639;BMP180;1641;51.306;12.384;2022-09-12T03:16:44;100324.00;;;16.80
24639;BMP180;1641;51.306;12.384;2022-09-12T03:22:38;100316.00;;;16.80
24639;BMP180;1641;51.306;12.384;2022-09-12T03:25:21;100314.00;;;16.60
24639;BMP180;1641;51.306;12.384;2022-09-12T03:27:58;100330.00;;;16.90
24639;BMP180;1641;51.306;12.384;2022-09-12T03:30:24;100322.00;;;16.90
24639;BMP180;1641;51.306;12.384;2022-09-12T03:32:52;100326.00;;;16.90
24639;BMP180;1641;51.306;12.384;2022-09-12T03:35:19;100303.00;;;16.90
24639;BMP180;1641;51.306;12.384;2022-09-12T03:37:46;100325.00;;;17.00
24639;BMP180;1641;51.306;12.384;2022-09-12T03:40:12;100237.00;;;16.70
24639;BMP180;1641;51.306;12.384;2022-09-12T03:42:38;100317.00;;;16.70
24639;BMP180;1641;51.306;12.384;2022-09-12T03:45:05;100312.00;;;16.70
24639;BMP180;1641;51.306;12.384;2022-09-12T03:47:30;100285.00;;;16.70
24639;BMP180;1641;51.306;12.384;2022-09-12T03:49:55;100313.00;;;16.50
24639;BMP180;1641;51.306;12.384;2022-09-12T03:52:21;100313.00;;;16.00
24639;BMP180;1641;51.306;12.384;2022-09-12T03:54:47;100299.00;;;15.90
24639;BMP180;1641;51.306;12.384;2022-09-12T03:57:12;100317.00;;;15.70
24639;BMP180;1641;51.306;12.384;2022-09-12T03:59:37;100318.00;;;15.60
24639;BMP180;1641;51.306;12.384;2022-09-12T04:02:03;100316.00;;;15.70
24639;BMP180;1641;51.306;12.384;2022-09-12T04:04:29;100323.00;;;15.60
24639;BMP180;1641;51.306;12.384;2022-09-12T04:06:54;100315.00;;;15.50
24639;BMP180;1641;51.306;12.384;2022-09-12T04:09:19;100312.00;;;15.40
24639;BMP180;1641;51.306;12.384;2022-09-12T04:11:45;100310.00;;;15.50
24639;BMP180;1641;51.306;12.384;2022-09-12T04:14:10;100292.00;;;15.60
24639;BMP180;1641;51.306;12.384;2022-09-12T04:16:35;100301.00;;;15.40
24639;BMP180;1641;51.306;12.384;2022-09-12T04:19:01;100322.00;;;15.50
24639;BMP180;1641;51.306;12.384;2022-09-12T04:21:26;100333.00;;;15.60
24639;BMP180;1641;51.306;12.384;2022-09-12T04:23:51;100334.00;;;15.60
24639;BMP180;1641;51.306;12.384;2022-09-12T04:26:17;100346.00;;;15.40
24639;BMP180;1641;51.306;12.384;2022-09-12T04:28:46;100335.00;;;15.40
24639;BMP180;1641;51.306;12.384;2022-09-12T04:31:15;100337.00;;;15.40
24639;BMP180;1641;51.306;12.384;2022-09-12T04:33:43;100330.00;;;15.50
24639;BMP180;1641;51.306;12.384;2022-09-12T04:36:11;100311.00;;;15.40
24639;BMP180;1641;51.306;12.384;2022-09-12T04:38:38;100335.00;;;15.10
24639;BMP180;1641;51.306;12.384;2022-09-12T04:41:24;100331.00;;;15.20
24639;BMP180;1641;51.306;12.384;2022-09-12T04:43:57;100332.00;;;15.50
24639;BMP180;1641;51.306;12.384;2022-09-12T04:46:24;100330.00;;;15.00
24639;BMP180;1641;51.306;12.384;2022-09-12T04:48:50;100318.00;;;15.40
24639;BMP180;1641;51.306;12.384;2022-09-12T04:51:21;100324.00;;;15.70
24639;BMP180;1641;51.306;12.384;2022-09-12T04:53:49;100291.00;;;15.80
24639;BMP180;1641;51.306;12.384;2022-09-12T04:56:14;100303.00;;;15.60
24639;BMP180;1641;51.306;12.384;2022-09-12T04:58:40;100330.00;;;15.90
24639;BMP180;1641;51.306;12.384;2022-09-12T05:01:10;100334.00;;;16.10
24639;BMP180;1641;51.306;12.384;2022-09-12T05:03:36;100323.00;;;16.10
24639;BMP180;1641;51.306;12.384;2022-09-12T05:06:06;100308.00;;;16.30
24639;BMP180;1641;51.306;12.384;2022-09-12T05:08:33;100336.00;;;16.00
24639;BMP180;1641;51.306;12.384;2022-09-12T05:11:04;100297.00;;;16.10
24639;BMP180;1641;51.306;12.384;2022-09-12T05:13:30;100350.00;;;15.90
24639;BMP180;1641;51.306;12.384;2022-09-12T05:15:57;100345.00;;;15.70
24639;BMP180;1641;51.306;12.384;2022-09-12T05:18:22;100330.00;;;15.50
24639;BMP180;1641;51.306;12.384;2022-09-12T05:20:47;100296.00;;;15.70
24639;BMP180;1641;51.306;12.384;2022-09-12T05:23:13;100350.00;;;16.00
24639;BMP180;1641;51.306;12.384;2022-09-12T05:25:38;100343.00;;;15.70
24639;BMP180;1641;51.306;12.384;2022-09-12T05:28:03;100319.00;;;15.80
24639;BMP180;1641;51.306;12.384;2022-09-12T05:30:28;100349.00;;;15.60
24639;BMP180;1641;51.306;12.384;2022-09-12T05:32:54;100347.00;;;15.70
24639;BMP180;1641;51.306;12.384;2022-09-12T05:35:20;100338.00;;;15.70
24639;BMP180;1641;51.306;12.384;2022-09-12T05:37:45;100331.00;;;15.70
24639;BMP180;1641;51.306;12.384;2022-09-12T05:40:10;100316.00;;;15.80
24639;BMP180;1641;51.306;12.384;2022-09-12T05:42:38;100339.00;;;15.80
24639;BMP180;1641;51.306;12.384;2022-09-12T05:45:04;100357.00;;;15.90
24639;BMP180;1641;51.306;12.384;2022-09-12T05:47:30;100365.00;;;16.20
24639;BMP180;1641;51.306;12.384;2022-09-12T05:49:55;100354.00;;;16.80
24639;BMP180;1641;51.306;12.384;2022-09-12T05:52:21;100359.00;;;16.80
24639;BMP180;1641;51.306;12.384;2022-09-12T05:54:47;100322.00;;;16.40
24639;BMP180;1641;51.306;12.384;2022-09-12T05:57:12;100364.00;;;16.10
24639;BMP180;1641;51.306;12.384;2022-09-12T05:59:37;100365.00;;;16.80
24639;BMP180;1641;51.306;12.384;2022-09-12T06:02:03;100337.00;;;16.90
24639;BMP180;1641;51.306;12.384;2022-09-12T06:04:28;100375.00;;;17.00
24639;BMP180;1641;51.306;12.384;2022-09-12T06:06:53;100377.00;;;17.00
24639;BMP180;1641;51.306;12.384;2022-09-12T06:09:19;100380.00;;;16.90
24639;BMP180;1641;51.306;12.384;2022-09-12T06:11:45;100361.00;;;16.90
24639;BMP180;1641;51.306;12.384;2022-09-12T06:14:12;100379.00;;;17.50
24639;BMP180;1641;51.306;12.384;2022-09-12T06:16:38;100376.00;;;17.90
24639;BMP180;1641;51.306;12.384;2022-09-12T06:19:06;100382.00;;;18.10
24639;BMP180;1641;51.306;12.384;2022-09-12T06:21:31;100384.00;;;18.00
24639;BMP180;1641;51.306;12.384;2022-09-12T06:23:58;100360.00;;;18.10
24639;BMP180;1641;51.306;12.384;2022-09-12T06:26:24;100372.00;;;17.90
24639;BMP180;1641;51.306;12.384;2022-09-12T06:28:51;100350.00;;;17.90
24639;BMP180;1641;51.306;12.384;2022-09-12T06:31:19;100373.00;;;18.30
24639;BMP180;1641;51.306;12.384;2022-09-12T06:33:47;100374.00;;;18.30
24639;BMP180;1641;51.306;12.384;2022-09-12T06:38:46;100372.00;;;19.20
24639;BMP180;1641;51.306;12.384;2022-09-12T06:41:13;100356.00;;;19.40
24639;BMP180;1641;51.306;12.384;2022-09-12T06:43:40;100364.00;;;20.20
24639;BMP180;1641;51.306;12.384;2022-09-12T06:46:06;100323.00;;;20.50
24639;BMP180;1641;51.306;12.384;2022-09-12T06:48:31;100381.00;;;20.60
24639;BMP180;1641;51.306;12.384;2022-09-12T06:51:04;100377.00;;;21.20
24639;BMP180;1641;51.306;12.384;2022-09-12T06:53:32;100387.00;;;21.20
24639;BMP180;1641;51.306;12.384;2022-09-12T06:56:04;100387.00;;;21.70
24639;BMP180;1641;51.306;12.384;2022-09-12T06:58:31;100391.00;;;21.80
24639;BMP180;1641;51.306;12.384;2022-09-12T07:01:04;100391.00;;;21.80
24639;BMP180;1641;51.306;12.384;2022-09-12T07:03:31;100390.00;;;21.30
24639;BMP180;1641;51.306;12.384;2022-09-12T07:06:02;100387.00;;;21.30
24639;BMP180;1641;51.306;12.384;2022-09-12T07:08:27;100357.00;;;20.70
24639;BMP180;1641;51.306;12.384;2022-09-12T07:10:56;100350.00;;;20.40
24639;BMP180;1641;51.306;12.384;2022-09-12T07:13:23;100362.00;;;19.50
24639;BMP180;1641;51.306;12.384;2022-09-12T07:15:48;100347.00;;;19.80
24639;BMP180;1641;51.306;12.384;2022-09-12T07:18:13;100393.00;;;19.50
24639;BMP180;1641;51.306;12.384;2022-09-12T07:20:39;100386.00;;;19.90
24639;BMP180;1641;51.306;12.384;2022-09-12T07:23:05;100351.00;;;20.60
24639;BMP180;1641;51.306;12.384;2022-09-12T07:25:30;100365.00;;;20.80
24639;BMP180;1641;51.306;12.384;2022-09-12T07:27:55;100366.00;;;20.80
24639;BMP180;1641;51.306;12.384;2022-09-12T07:30:20;100386.00;;;21.10
24639;BMP180;1641;51.306;12.384;2022-09-12T07:32:50;100386.00;;;21.40
24639;BMP180;1641;51.306;12.384;2022-09-12T07:35:16;100357.00;;;21.60
24639;BMP180;1641;51.306;12.384;2022-09-12T07:37:42;100382.00;;;21.60
24639;BMP180;1641;51.306;12.384;2022-09-12T07:40:07;100370.00;;;22.90
24639;BMP180;1641;51.306;12.384;2022-09-12T07:42:34;100367.00;;;24.20
24639;BMP180;1641;51.306;12.384;2022-09-12T07:44:59;100351.00;;;22.50
24639;BMP180;1641;51.306;12.384;2022-09-12T07:47:25;100353.00;;;22.80
24639;BMP180;1641;51.306;12.384;2022-09-12T07:49:50;100385.00;;;22.50
24639;BMP180;1641;51.306;12.384;2022-09-12T07:52:17;100385.00;;;22.50
24639;BMP180;1641;51.306;12.384;2022-09-12T07:54:42;100366.00;;;21.80
24639;BMP180;1641;51.306;12.384;2022-09-12T07:57:07;100346.00;;;22.10
24639;BMP180;1641;51.306;12.384;2022-09-12T07:59:32;100366.00;;;23.20
24639;BMP180;1641;51.306;12.384;2022-09-12T08:01:58;100387.00;;;24.40
24639;BMP180;1641;51.306;12.384;2022-09-12T08:04:23;100389.00;;;24.20
24639;BMP180;1641;51.306;12.384;2022-09-12T08:06:48;100381.00;;;24.60
24639;BMP180;1641;51.306;12.384;2022-09-12T08:09:13;100376.00;;;24.40
24639;BMP180;1641;51.306;12.384;2022-09-12T08:11:41;100383.00;;;25.70
24639;BMP180;1641;51.306;12.384;2022-09-12T08:14:08;100395.00;;;27.20
24639;BMP180;1641;51.306;12.384;2022-09-12T08:16:33;100401.00;;;25.80
24639;BMP180;1641;51.306;12.384;2022-09-12T08:19:00;100375.00;;;26.40
24639;BMP180;1641;51.306;12.384;2022-09-12T08:21:28;100407.00;;;27.20
24639;BMP180;1641;51.306;12.384;2022-09-12T08:23:59;100406.00;;;27.30
24639;BMP180;1641;51.306;12.384;2022-09-12T08:26:25;100386.00;;;27.80
24639;BMP180;1641;51.306;12.384;2022-09-12T08:28:51;100400.00;;;27.60
24639;BMP180;1641;51.306;12.384;2022-09-12T08:31:19;100399.00;;;27.60
24639;BMP180;1641;51.306;12.384;2022-09-12T08:33:44;100380.00;;;28.60
24639;BMP180;1641;51.306;12.384;2022-09-12T08:38:43;100390.00;;;29.60
24639;BMP180;1641;51.306;12.384;2022-09-12T08:46:44;100403.00;;;30.00
24639;BMP180;1641;51.306;12.384;2022-09-12T08:49:14;100373.00;;;31.10
24639;BMP180;1641;51.306;12.384;2022-09-12T08:51:44;100392.00;;;30.10
24639;BMP180;1641;51.306;12.384;2022-09-12T08:54:20;100379.00;;;30.20
24639;BMP180;1641;51.306;12.384;2022-09-12T08:56:48;100413.00;;;30.40
24639;BMP180;1641;51.306;12.384;2022-09-12T08:59:14;100407.00;;;29.50
24639;BMP180;1641;51.306;12.384;2022-09-12T09:04:55;100377.00;;;28.80
24639;BMP180;1641;51.306;12.384;2022-09-12T09:07:52;100372.00;;;29.70
24639;BMP180;1641;51.306;12.384;2022-09-12T09:10:48;100396.00;;;30.70
24639;BMP180;1641;51.306;12.384;2022-09-12T09:13:53;100395.00;;;30.70
24639;BMP180;1641;51.306;12.384;2022-09-12T09:16:43;100395.00;;;29.60
24639;BMP180;1641;51.306;12.384;2022-09-12T09:19:39;100396.00;;;30.50
24639;BMP180;1641;51.306;12.384;2022-09-12T09:22:16;100360.00;;;30.80
24639;BMP180;1641;51.306;12.384;2022-09-12T09:24:58;100383.00;;;30.60
24639;BMP180;1641;51.306;12.384;2022-09-12T09:28:14;100397.00;;;31.10
24639;BMP180;1641;51.306;12.384;2022-09-12T09:30:21;100391.00;;;31.70
24639;BMP180;1641;51.306;12.384;2022-09-12T09:32:52;100399.00;;;29.80
24639;BMP180;1641;51.306;12.384;2022-09-12T09:35:43;100396.00;;;29.50
24639;BMP180;1641;51.306;12.384;2022-09-12T09:38:40;100387.00;;;27.80
24639;BMP180;1641;51.306;12.384;2022-09-12T09:43:49;100343.00;;;29.80
24639;BMP180;1641;51.306;12.384;2022-09-12T09:46:14;100386.00;;;28.10
24639;BMP180;1641;51.306;12.384;2022-09-12T09:48:55;100384.00;;;27.20
24639;BMP180;1641;51.306;12.384;2022-09-12T09:51:28;100376.00;;;25.70
24639;BMP180;1641;51.306;12.384;2022-09-12T09:54:23;100373.00;;;25.60
24639;BMP180;1641;51.306;12.384;2022-09-12T09:56:49;100372.00;;;25.10
24639;BMP180;1641;51.306;12.384;2022-09-12T10:01:49;100377.00;;;25.20
24639;BMP180;1641;51.306;12.384;2022-09-12T10:04:26;100365.00;;;25.00
24639;BMP180;1641;51.306;12.384;2022-09-12T10:06:55;100364.00;;;25.40
24639;BMP180;1641;51.306;12.384;2022-09-12T10:09:24;100365.00;;;25.00
24639;BMP180;1641;51.306;12.384;2022-09-12T10:11:51;100352.00;;;24.40
24639;BMP180;1641;51.306;12.384;2022-09-12T10:14:38;100364.00;;;24.40
24639;BMP180;1641;51.306;12.384;2022-09-12T10:17:24;100336.00;;;23.80
24639;BMP180;1641;51.306;12.384;2022-09-12T10:19:54;100353.00;;;22.80
24639;BMP180;1641;51.306;12.384;2022-09-12T10:22:23;100358.00;;;23.60
24639;BMP180;1641;51.306;12.384;2022-09-12T10:24:52;100357.00;;;24.10
24639;BMP180;1641;51.306;12.384;2022-09-12T10:27:31;100360.00;;;24.30
24639;BMP180;1641;51.306;12.384;2022-09-12T10:30:15;100358.00;;;24.00
24639;BMP180;1641;51.306;12.384;2022-09-12T10:32:44;100360.00;;;22.90
24639;BMP180;1641;51.306;12.384;2022-09-12T10:35:30;100343.00;;;22.00
24639;BMP180;1641;51.306;12.384;2022-09-12T10:38:26;100365.00;;;22.30
24639;BMP180;1641;51.306;12.384;2022-09-12T10:41:01;100361.00;;;21.90
24639;BMP180;1641;51.306;12.384;2022-09-12T10:43:35;100337.00;;;22.10
24639;BMP180;1641;51.306;12.384;2022-09-12T10:46:21;100338.00;;;22.40
24639;BMP180;1641;51.306;12.384;2022-09-12T10:48:48;100352.00;;;22.10
24639;BMP180;1641;51.306;12.384;2022-09-12T10:53:53;100342.00;;;21.90
24639;BMP180;1641;51.306;12.384;2022-09-12T10:56:27;100338.00;;;22.20
24639;BMP180;1641;51.306;12.384;2022-09-12T11:02:11;100347.00;;;22.10
24639;BMP180;1641;51.306;12.384;2022-09-12T11:07:36;100318.00;;;22.20
24639;BMP180;1641;51.306;12.384;2022-09-12T11:15:36;100323.00;;;23.30
24639;BMP180;1641;51.306;12.384;2022-09-12T11:24:06;100313.00;;;23.40
24639;BMP180;1641;51.306;12.384;2022-09-12T11:29:46;100315.00;;;22.60
24639;BMP180;1641;51.306;12.384;2022-09-12T11:40:46;100304.00;;;23.70
24639;BMP180;1641;51.306;12.384;2022-09-12T11:45:54;100312.00;;;22.90
24639;BMP180;1641;51.306;12.384;2022-09-12T11:48:47;100303.00;;;22.80
24639;BMP180;1641;51.306;12.384;2022-09-12T11:51:18;100307.00;;;22.90
24639;BMP180;1641;51.306;12.384;2022-09-12T11:53:51;100304.00;;;23.60
24639;BMP180;1641;51.306;12.384;2022-09-12T11:56:19;100297.00;;;23.90
24639;BMP180;1641;51.306;12.384;2022-09-12T11:59:00;100303.00;;;22.60
24639;BMP180;1641;51.306;12.384;2022-09-12T12:01:42;100272.00;;;22.20
24639;BMP180;1641;51.306;12.384;2022-09-12T12:04:19;100275.00;;;22.40
24639;BMP180;1641;51.306;12.384;2022-09-12T12:07:06;100304.00;;;22.90
24639;BMP180;1641;51.306;12.384;2022-09-12T12:09:33;100297.00;;;22.90
24639;BMP180;1641;51.306;12.384;2022-09-12T12:12:01;100289.00;;;23.10
24639;BMP180;1641;51.306;12.384;2022-09-12T12:14:42;100284.00;;;23.70
24639;BMP180;1641;51.306;12.384;2022-09-12T12:17:20;100291.00;;;23.60
24639;BMP180;1641;51.306;12.384;2022-09-12T12:19:55;100276.00;;;23.10
24639;BMP180;1641;51.306;12.384;2022-09-12T12:22:22;100290.00;;;23.70
24639;BMP180;1641;51.306;12.384;2022-09-12T12:25:21;100292.00;;;24.10
24639;BMP180;1641;51.306;12.384;2022-09-12T12:27:58;100281.00;;;23.40
24639;BMP180;1641;51.306;12.384;2022-09-12T12:35:43;100255.00;;;23.20
24639;BMP180;1641;51.306;12.384;2022-09-12T12:38:27;100270.00;;;23.40
24639;BMP180;1641;51.306;12.384;2022-09-12T12:40:53;100263.00;;;23.50
24639;BMP180;1641;51.306;12.384;2022-09-12T12:43:38;100270.00;;;23.10
24639;BMP180;1641;51.306;12.384;2022-09-12T12:46:05;100258.00;;;22.90
24639;BMP180;1641;51.306;12.384;2022-09-12T12:48:33;100251.00;;;23.60
24639;BMP180;1641;51.306;12.384;2022-09-12T12:53:53;100263.00;;;24.10
24639;BMP180;1641;51.306;12.384;2022-09-12T12:56:26;100259.00;;;24.50
24639;BMP180;1641;51.306;12.384;2022-09-12T12:59:00;100266.00;;;24.60
24639;BMP180;1641;51.306;12.384;2022-09-12T13:01:27;100225.00;;;24.00
24639;BMP180;1641;51.306;12.384;2022-09-12T13:03:55;100245.00;;;24.20
24639;BMP180;1641;51.306;12.384;2022-09-12T13:09:01;100197.00;;;24.50
24639;BMP180;1641;51.306;12.384;2022-09-12T13:11:32;100243.00;;;24.20
24639;BMP180;1641;51.306;12.384;2022-09-12T13:14:06;100224.00;;;24.20
24639;BMP180;1641;51.306;12.384;2022-09-12T13:16:53;100208.00;;;24.20
24639;BMP180;1641;51.306;12.384;2022-09-12T13:19:27;100188.00;;;24.80
24639;BMP180;1641;51.306;12.384;2022-09-12T13:22:01;100239.00;;;25.00
24639;BMP180;1641;51.306;12.384;2022-09-12T13:24:27;100239.00;;;24.70
24639;BMP180;1641;51.306;12.384;2022-09-12T13:26:53;100211.00;;;24.20
24639;BMP180;1641;51.306;12.384;2022-09-12T13:29:23;100223.00;;;24.60
24639;BMP180;1641;51.306;12.384;2022-09-12T13:31:52;100212.00;;;24.50
24639;BMP180;1641;51.306;12.384;2022-09-12T13:34:32;100194.00;;;24.60
24639;BMP180;1641;51.306;12.384;2022-09-12T13:37:50;100219.00;;;24.50
24639;BMP180;1641;51.306;12.384;2022-09-12T13:40:16;100222.00;;;23.90
24639;BMP180;1641;51.306;12.384;2022-09-12T13:42:48;100223.00;;;24.10
24639;BMP180;1641;51.306;12.384;2022-09-12T13:45:20;100193.00;;;24.20
24639;BMP180;1641;51.306;12.384;2022-09-12T13:47:49;100162.00;;;24.70
24639;BMP180;1641;51.306;12.384;2022-09-12T13:50:28;100209.00;;;25.10
24639;BMP180;1641;51.306;12.384;2022-09-12T13:52:58;100218.00;;;25.20
24639;BMP180;1641;51.306;12.384;2022-09-12T13:55:30;100221.00;;;25.10
24639;BMP180;1641;51.306;12.384;2022-09-12T13:58:01;100214.00;;;24.20
24639;BMP180;1641;51.306;12.384;2022-09-12T14:00:28;100172.00;;;25.00
24639;BMP180;1641;51.306;12.384;2022-09-12T14:02:55;100209.00;;;25.30
24639;BMP180;1641;51.306;12.384;2022-09-12T14:05:42;100207.00;;;25.00
24639;BMP180;1641;51.306;12.384;2022-09-12T14:08:10;100204.00;;;24.80
24639;BMP180;1641;51.306;12.384;2022-09-12T14:10:40;100184.00;;;25.00
24639;BMP180;1641;51.306;12.384;2022-09-12T14:13:12;100193.00;;;24.90
24639;BMP180;1641;51.306;12.384;2022-09-12T14:15:38;100183.00;;;24.90
24639;BMP180;1641;51.306;12.384;2022-09-12T14:18:23;100179.00;;;24.40
24639;BMP180;1641;51.306;12.384;2022-09-12T14:20:49;100176.00;;;24.30
24639;BMP180;1641;51.306;12.384;2022-09-12T14:23:26;100199.00;;;24.10
24639;BMP180;1641;51.306;12.384;2022-09-12T14:26:32;100187.00;;;24.10
24639;BMP180;1641;51.306;12.384;2022-09-12T14:28:59;100172.00;;;24.40
24639;BMP180;1641;51.306;12.384;2022-09-12T14:31:30;100176.00;;;25.10
24639;BMP180;1641;51.306;12.384;2022-09-12T14:34:14;100185.00;;;25.20
24639;BMP180;1641;51.306;12.384;2022-09-12T14:36:43;100149.00;;;24.70
24639;BMP180;1641;51.306;12.384;2022-09-12T14:41:41;100134.00;;;24.60
24639;BMP180;1641;51.306;12.384;2022-09-12T14:44:29;100139.00;;;24.70
24639;BMP180;1641;51.306;12.384;2022-09-12T14:46:58;100175.00;;;25.00
24639;BMP180;1641;51.306;12.384;2022-09-12T14:49:33;100184.00;;;24.80
24639;BMP180;1641;51.306;12.384;2022-09-12T14:52:02;100180.00;;;25.10
24639;BMP180;1641;51.306;12.384;2022-09-12T14:59:52;100145.00;;;24.50
24639;BMP180;1641;51.306;12.384;2022-09-12T15:04:46;100131.00;;;24.20
24639;BMP180;1641;51.306;12.384;2022-09-12T15:07:29;100166.00;;;23.90
24639;BMP180;1641;51.306;12.384;2022-09-12T15:09:57;100156.00;;;23.80
24639;BMP180;1641;51.306;12.384;2022-09-12T15:12:23;100168.00;;;23.80
24639;BMP180;1641;51.306;12.384;2022-09-12T15:14:48;100168.00;;;23.60
24639;BMP180;1641;51.306;12.384;2022-09-12T15:17:13;100160.00;;;23.90
24639;BMP180;1641;51.306;12.384;2022-09-12T15:19:39;100132.00;;;23.90
24639;BMP180;1641;51.306;12.384;2022-09-12T15:22:23;100133.00;;;24.30
24639;BMP180;1641;51.306;12.384;2022-09-12T15:24:49;100152.00;;;24.00
24639;BMP180;1641;51.306;12.384;2022-09-12T15:27:14;100091.00;;;23.90
24639;BMP180;1641;51.306;12.384;2022-09-12T15:29:39;100124.00;;;24.40
24639;BMP180;1641;51.306;12.384;2022-09-12T15:32:05;100130.00;;;24.40
24639;BMP180;1641;51.306;12.384;2022-09-12T15:34:31;100162.00;;;23.80
24639;BMP180;1641;51.306;12.384;2022-09-12T15:36:56;100141.00;;;24.10
24639;BMP180;1641;51.306;12.384;2022-09-12T15:39:22;100167.00;;;24.50
24639;BMP180;1641;51.306;12.384;2022-09-12T15:41:47;100144.00;;;24.50
24639;BMP180;1641;51.306;12.384;2022-09-12T15:44:13;100136.00;;;24.50
24639;BMP180;1641;51.306;12.384;2022-09-12T15:46:39;100134.00;;;24.50
24639;BMP180;1641;51.306;12.384;2022-09-12T15:49:04;100158.00;;;24.40
24639;BMP180;1641;51.306;12.384;2022-09-12T15:51:31;100139.00;;;24.20
24639;BMP180;1641;51.306;12.384;2022-09-12T15:53:56;100157.00;;;24.30
24639;BMP180;1641;51.306;12.384;2022-09-12T15:56:21;100151.00;;;24.50
24639;BMP180;1641;51.306;12.384;2022-09-12T15:58:47;100154.00;;;24.40
24639;BMP180;1641;51.306;12.384;2022-09-12T16:01:15;100154.00;;;24.50
24639;BMP180;1641;51.306;12.384;2022-09-12T16:03:41;100149.00;;;24.10
24639;BMP180;1641;51.306;12.384;2022-09-12T16:06:07;100152.00;;;24.30
24639;BMP180;1641;51.306;12.384;2022-09-12T16:08:33;100146.00;;;24.00